createdAt,value
2018-04-29T00:00:05.062Z,19.1
2018-04-29T00:15:04.589Z,18.9
2018-04-29T00:30:04.705Z,18.6
2018-04-29T00:45:04.793Z,18.5
2018-04-29T01:00:04.763Z,18.5
2018-04-29T01:15:04.703Z,18.3
2018-04-29T01:30:04.936Z,18.3
2018-04-29T01:45:04.568Z,17.9
2018-04-29T02:00:04.654Z,17.8
2018-04-29T02:15:05.349Z,17.7
2018-04-29T02:30:05.152Z,17.3
2018-04-29T02:45:05.251Z,17.1
2018-04-29T03:00:05.157Z,17
2018-04-29T03:15:05.037Z,16.8
2018-04-29T03:30:04.918Z,17
2018-04-29T03:45:04.690Z,16.9
2018-04-29T04:00:05.369Z,17
2018-04-29T04:15:04.569Z,16.9
2018-04-29T04:30:04.697Z,16.8
2018-04-29T04:45:04.766Z,16.9
2018-04-29T05:00:04.903Z,16.5
2018-04-29T05:15:05.232Z,16.6
2018-04-29T05:30:04.755Z,17
2018-04-29T05:45:05.739Z,17.5
2018-04-29T06:00:04.999Z,17.6
2018-04-29T06:15:04.528Z,18.3
2018-04-29T06:30:04.843Z,18.5
2018-04-29T06:45:05.041Z,18.7
2018-04-29T07:00:05.182Z,19
2018-04-29T07:15:04.682Z,19.4
2018-04-29T07:30:04.983Z,20.2
2018-04-29T07:45:04.500Z,21.2
2018-04-29T08:00:05.197Z,22.3
2018-04-29T08:15:05.193Z,23.6
2018-04-29T08:30:04.812Z,24.8
2018-04-29T08:45:05.186Z,23.8
2018-04-29T09:00:05.316Z,23.7
2018-04-29T09:15:04.343Z,23.3
2018-04-29T09:30:04.875Z,24.7
2018-04-29T09:45:04.938Z,25.4
2018-04-29T10:00:04.424Z,25.7
2018-04-29T10:15:04.964Z,26
2018-04-29T10:30:04.652Z,25.7
2018-04-29T10:45:04.594Z,25.7
2018-04-29T11:00:04.625Z,25.6
2018-04-29T11:15:04.582Z,25.6
2018-04-29T11:30:04.407Z,25.9
2018-04-29T11:45:04.846Z,25.8
2018-04-29T12:00:04.996Z,26.2
2018-04-29T12:15:04.917Z,26.1
2018-04-29T12:30:05.097Z,26.7
2018-04-29T12:45:05.197Z,26.9
2018-04-29T13:00:04.742Z,26.9
2018-04-29T13:15:05.056Z,26.9
2018-04-29T13:30:04.818Z,27
2018-04-29T13:45:04.330Z,27.2
2018-04-29T14:00:04.775Z,27.2
2018-04-29T14:15:04.719Z,27.2
2018-04-29T14:30:04.919Z,27.1
2018-04-29T14:45:04.870Z,26.8
2018-04-29T15:00:04.910Z,26.6
2018-04-29T15:15:04.899Z,26.7
2018-04-29T15:30:04.709Z,26.6
2018-04-29T15:45:04.777Z,26.5
2018-04-29T16:00:05.160Z,26.2
2018-04-29T16:15:05.227Z,26.1
2018-04-29T16:30:04.901Z,25.9
2018-04-29T16:45:04.958Z,25.9
2018-04-29T17:00:04.549Z,25.7
2018-04-29T17:15:05.054Z,25.6
2018-04-29T17:30:04.743Z,25.3
2018-04-29T17:45:04.739Z,25.3
2018-04-29T18:00:04.736Z,25.2
2018-04-29T18:15:04.654Z,25.1
2018-04-29T18:30:04.857Z,25.1
2018-04-29T18:45:04.952Z,24.9
2018-04-29T19:00:05.076Z,24.7
2018-04-29T19:15:05.131Z,24.9
2018-04-29T19:30:04.866Z,24.8
2018-04-29T19:45:04.306Z,24.6
2018-04-29T20:00:04.525Z,24.5
2018-04-29T20:15:05.233Z,24.4
2018-04-29T20:30:05.335Z,24.4
2018-04-29T20:45:05.100Z,24.2
2018-04-29T21:00:05.515Z,24.1
2018-04-29T21:15:05.274Z,24
2018-04-29T21:30:05.386Z,24
2018-04-29T21:45:05.178Z,23.8
2018-04-29T22:00:04.977Z,23.5
2018-04-29T22:15:04.454Z,23.6
2018-04-29T22:30:05.160Z,24
2018-04-29T22:45:04.763Z,23.1
2018-04-29T23:00:04.546Z,22.1
2018-04-29T23:15:05.053Z,21.2
2018-04-29T23:30:05.053Z,20.4
2018-04-29T23:45:05.161Z,19.6
